Time;durP1;ratioP1;P1;durP2;ratioP2;P2;SDS_P1;SDS_P2;PMS_P1;PMS_P2;Temp;Humidity;BMP_temperature;BMP_pressure;BME280_temperature;BME280_humidity;BME280_pressure;Samples;Min_cycle;Max_cycle;Signal;HPM_P1;HPM_P2
2021/12/02 00:01:33;;;;;;;2.70;2.00;;;;;;;7.24;86.87;96774.17;102599;1310;62221;-71
2021/12/02 00:04:00;;;;;;;2.80;2.20;;;;;;;7.23;86.85;96775.61;102551;1310;76107;-71
2021/12/02 00:06:27;;;;;;;2.50;2.10;;;;;;;7.24;86.89;96776.64;102172;1316;69364;-70
2021/12/02 00:08:53;;;;;;;3.70;2.30;;;;;;;7.24;86.99;96776.64;102515;1310;73490;-72
2021/12/02 00:11:21;;;;;;;3.40;2.20;;;;;;;7.23;87.04;96770.00;102318;1313;62457;-72
2021/12/02 00:16:35;;;;;;;3.00;1.90;;;;;;;7.24;86.96;96775.23;102361;1310;75768;-71
2021/12/02 00:21:52;;;;;;;2.70;2.40;;;;;;;7.26;86.96;96775.95;102342;1310;73599;-71
2021/12/02 00:24:22;;;;;;;3.50;2.70;;;;;;;7.28;87.06;96773.48;102386;1311;62129;-72
2021/12/02 00:26:51;;;;;;;3.90;2.40;;;;;;;7.30;86.91;96772.81;102441;1310;62186;-71
2021/12/02 00:29:22;;;;;;;3.30;2.80;;;;;;;7.32;86.92;96778.63;102420;1310;77332;-70
2021/12/02 00:31:51;;;;;;;4.00;2.40;;;;;;;7.33;86.99;96780.61;102405;1313;69917;-70
2021/12/02 00:34:19;;;;;;;2.30;1.70;;;;;;;7.34;86.92;96780.23;101990;1314;73711;-71
2021/12/02 00:36:46;;;;;;;2.00;1.80;;;;;;;7.36;86.77;96783.19;102309;1311;62126;-70
2021/12/02 00:39:17;;;;;;;1.90;1.70;;;;;;;7.38;86.67;96780.38;102371;1310;62104;-70
2021/12/02 00:41:44;;;;;;;;;;;;;;;7.39;86.72;96776.67;102359;1311;76282;-72
2021/12/02 00:44:12;;;;;;;2.00;1.50;;;;;;;7.41;86.72;96779.57;102392;1311;69610;-71
2021/12/02 00:46:40;;;;;;;2.50;1.80;;;;;;;7.42;86.84;96782.83;102339;1310;72879;-71
2021/12/02 00:49:12;;;;;;;3.30;1.60;;;;;;;7.42;86.91;96782.43;102281;1310;62108;-71
2021/12/02 00:51:40;;;;;;;2.30;1.60;;;;;;;7.43;86.76;96777.25;102304;1310;62164;-71
2021/12/02 00:54:10;;;;;;;2.80;1.90;;;;;;;7.43;86.72;96782.86;102152;1310;76551;-70
2021/12/02 00:56:40;;;;;;;3.50;2.20;;;;;;;7.44;86.71;96787.02;102077;1317;70595;-70
2021/12/02 00:59:08;;;;;;;2.50;1.90;;;;;;;7.44;86.73;96789.84;102448;1310;74584;-70
2021/12/02 01:01:37;;;;;;;2.40;2.20;;;;;;;7.44;86.75;96793.21;102048;1313;62216;-70
2021/12/02 01:04:11;;;;;;;2.60;1.90;;;;;;;7.42;86.73;96789.83;101777;1314;62397;-70
2021/12/02 01:06:39;;;;;;;3.10;2.20;;;;;;;7.42;86.77;96782.48;102063;1311;77268;-70
2021/12/02 01:09:07;;;;;;;4.40;2.00;;;;;;;7.41;86.86;96787.00;102074;1314;68374;-70
2021/12/02 01:11:34;;;;;;;3.10;1.80;;;;;;;7.39;86.88;96787.63;102025;1310;73699;-70
2021/12/02 01:14:02;;;;;;;3.40;1.70;;;;;;;7.38;86.89;96785.63;102078;1311;62127;-70
2021/12/02 01:16:28;;;;;;;2.50;1.80;;;;;;;7.37;86.97;96783.45;102039;1310;62205;-70
2021/12/02 01:18:55;;;;;;;3.10;1.90;;;;;;;7.36;86.99;96787.73;102057;1311;76128;-71
2021/12/02 01:21:24;;;;;;;2.60;2.00;;;;;;;7.36;86.99;96784.41;102094;1310;69342;-70
2021/12/02 01:23:57;;;;;;;3.20;2.00;;;;;;;7.36;87.03;96779.61;102405;1311;72949;-70
2021/12/02 01:26:27;;;;;;;3.60;2.00;;;;;;;7.35;86.98;96783.25;102029;1311;62104;-69
2021/12/02 01:28:55;;;;;;;3.50;2.10;;;;;;;7.33;87.05;96781.98;102101;1310;62193;-70
2021/12/02 01:31:23;;;;;;;2.80;1.70;;;;;;;7.33;86.95;96779.89;102053;1311;76106;-71
2021/12/02 01:33:51;;;;;;;3.40;2.00;;;;;;;7.34;87.02;96784.58;102037;1310;70397;-70
2021/12/02 01:36:19;;;;;;;2.20;1.60;;;;;;;7.36;86.96;96779.41;102102;1310;74190;-71
2021/12/02 01:38:46;;;;;;;2.30;2.00;;;;;;;7.36;86.99;96783.39;102095;1310;62115;-71
2021/12/02 01:41:12;;;;;;;2.00;1.40;;;;;;;7.35;87.03;96787.85;102243;1310;62573;-71
2021/12/02 01:43:45;;;;;;;1.60;1.50;;;;;;;7.34;87.04;96785.17;102362;1310;76820;-71
2021/12/02 01:46:14;;;;;;;1.70;1.60;;;;;;;7.32;86.91;96781.40;102371;1314;69795;-71
2021/12/02 01:48:42;;;;;;;2.10;1.90;;;;;;;7.33;86.81;96786.31;102452;1310;73286;-70
2021/12/02 01:51:11;;;;;;;1.80;1.60;;;;;;;7.34;86.94;96787.82;102336;1314;62054;-71
2021/12/02 01:53:40;;;;;;;2.60;2.00;;;;;;;7.33;86.93;96789.07;102357;1310;62165;-70
2021/12/02 01:56:14;;;;;;;2.30;1.70;;;;;;;7.33;86.97;96792.66;102330;1313;77013;-71
2021/12/02 01:58:51;;;;;;;2.50;1.90;;;;;;;7.32;87.02;96791.33;102357;1310;70556;-71
2021/12/02 02:01:26;;;;;;;2.10;1.70;;;;;;;7.30;87.06;96791.45;102375;1310;73243;-71
2021/12/02 02:03:55;;;;;;;2.50;1.90;;;;;;;7.30;87.09;96796.82;102449;1311;62129;-71
2021/12/02 02:06:37;;;;;;;2.10;1.70;;;;;;;7.30;87.07;96796.98;102154;1311;62067;-71
2021/12/02 02:09:06;;;;;;;2.50;2.00;;;;;;;7.31;87.09;96799.02;102314;1310;77260;-70
2021/12/02 02:11:33;;;;;;;3.00;2.20;;;;;;;7.32;87.08;96800.33;102395;1310;70543;-71
2021/12/02 02:14:00;;;;;;;4.00;2.50;;;;;;;7.32;87.15;96806.36;102299;1310;74285;-71
2021/12/02 02:16:28;;;;;;;3.20;2.40;;;;;;;7.30;87.14;96805.63;101918;1313;62142;-70
2021/12/02 02:18:55;;;;;;;3.60;2.50;;;;;;;7.29;87.18;96806.93;102351;1311;62197;-70
2021/12/02 02:21:23;;;;;;;3.20;2.20;;;;;;;7.27;87.09;96810.48;101723;1313;75375;-70
2021/12/02 02:23:58;;;;;;;2.70;1.70;;;;;;;7.24;87.16;96813.18;101856;1313;68412;-71
2021/12/02 02:26:28;;;;;;;3.30;2.00;;;;;;;7.24;87.14;96819.02;102021;1310;73655;-69
2021/12/02 02:28:56;;;;;;;2.60;2.10;;;;;;;7.24;87.22;96819.03;102113;1310;62129;-70
2021/12/02 02:31:27;;;;;;;3.20;2.20;;;;;;;7.23;87.22;96825.61;102247;1310;62127;-70
2021/12/02 02:33:53;;;;;;;2.10;1.80;;;;;;;7.23;87.22;96819.84;102032;1310;76459;-70
2021/12/02 02:36:23;;;;;;;3.10;2.10;;;;;;;7.22;87.20;96821.68;102047;1310;69848;-70
2021/12/02 02:38:56;;;;;;;5.20;2.30;;;;;;;7.22;87.22;96823.41;102291;1310;73283;-70
2021/12/02 02:41:30;;;;;;;5.20;2.20;;;;;;;7.21;87.23;96821.36;102074;1311;62152;-70
2021/12/02 02:43:59;;;;;;;4.80;3.20;;;;;;;7.20;87.28;96826.80;101856;1314;62314;-70
2021/12/02 02:46:34;;;;;;;4.20;2.90;;;;;;;7.18;87.29;96823.77;102053;1313;77249;-70
2021/12/02 02:49:03;;;;;;;2.70;2.40;;;;;;;7.17;87.31;96826.93;102048;1310;70325;-70
2021/12/02 02:51:31;;;;;;;3.20;2.40;;;;;;;7.15;87.27;96824.95;102088;1314;74773;-71
2021/12/02 02:54:04;;;;;;;3.90;2.30;;;;;;;7.15;87.35;96825.10;102176;1310;62132;-71
2021/12/02 02:56:40;;;;;;;4.50;2.40;;;;;;;7.15;87.28;96819.81;102333;1309;62206;-71
2021/12/02 03:12:10;;;;;;;3.60;2.50;;;;;;;7.16;87.37;96818.17;101863;1314;76876;-70
2021/12/02 03:17:10;;;;;;;5.10;3.50;;;;;;;7.16;87.23;96823.98;102318;1310;73146;-71
2021/12/02 03:19:42;;;;;;;4.40;2.80;;;;;;;7.15;87.17;96816.83;102223;1317;62225;-71
2021/12/02 03:22:09;;;;;;;4.80;2.80;;;;;;;7.14;87.13;96821.52;102328;1310;62209;-70
2021/12/02 03:24:36;;;;;;;3.00;2.70;;;;;;;7.12;87.10;96824.19;102355;1310;75516;-72
2021/12/02 03:27:03;;;;;;;3.40;2.50;;;;;;;7.09;87.12;96830.91;102277;1310;70230;-71
2021/12/02 03:29:30;;;;;;;3.20;2.90;;;;;;;7.08;87.00;96828.77;102067;1313;74507;-71
2021/12/02 03:31:57;;;;;;;2.70;2.20;;;;;;;7.07;87.02;96831.35;102290;1313;62302;-70
2021/12/02 03:34:24;;;;;;;3.80;2.70;;;;;;;7.03;87.05;96821.57;102338;1310;62331;-70
2021/12/02 03:36:52;;;;;;;2.60;2.30;;;;;;;7.00;87.01;96813.14;102346;1310;76148;-70
2021/12/02 03:39:19;;;;;;;4.20;2.80;;;;;;;6.99;87.06;96821.60;102112;1313;70461;-73
2021/12/02 03:41:46;;;;;;;3.10;2.70;;;;;;;6.97;87.04;96821.25;102372;1310;74237;-71
2021/12/02 03:44:13;;;;;;;2.30;2.10;;;;;;;6.95;87.02;96820.49;102338;1310;62147;-71
2021/12/02 03:46:41;;;;;;;3.80;2.80;;;;;;;6.95;87.05;96819.99;102320;1311;62243;-70
2021/12/02 03:49:07;;;;;;;3.30;2.30;;;;;;;6.95;87.06;96816.58;102390;1314;76373;-72
2021/12/02 03:51:34;;;;;;;4.40;2.80;;;;;;;6.94;87.05;96815.70;102311;1314;70520;-72
2021/12/02 03:54:01;;;;;;;4.80;2.20;;;;;;;6.93;86.97;96816.48;102378;1310;72609;-71
2021/12/02 03:56:28;;;;;;;3.90;2.70;;;;;;;6.94;86.86;96817.23;102395;1310;62253;-71
2021/12/02 03:58:54;;;;;;;5.20;3.10;;;;;;;6.95;86.92;96814.69;102481;1311;62164;-71
2021/12/02 04:01:22;;;;;;;4.10;2.90;;;;;;;6.94;86.88;96810.73;102439;1311;76710;-70
2021/12/02 04:03:49;;;;;;;4.40;2.60;;;;;;;6.94;86.87;96803.13;102408;1314;69659;-71
2021/12/02 04:06:16;;;;;;;5.10;3.00;;;;;;;6.94;86.88;96810.35;102440;1310;73922;-72
2021/12/02 04:08:46;;;;;;;4.50;3.20;;;;;;;6.94;86.74;96811.10;102002;1313;62234;-71
2021/12/02 04:16:26;;;;;;;5.40;2.60;;;;;;;6.94;86.61;96815.50;102454;1310;69706;-71
2021/12/02 04:18:53;;;;;;;4.90;2.30;;;;;;;6.94;86.67;96819.84;102412;1310;74219;-71
2021/12/02 04:21:20;;;;;;;5.80;3.20;;;;;;;6.92;86.62;96820.58;102466;1313;62267;-71
2021/12/02 04:23:47;;;;;;;4.40;2.90;;;;;;;6.91;86.70;96824.73;102465;1310;62050;-71
2021/12/02 04:26:14;;;;;;;4.40;2.80;;;;;;;6.91;86.63;96832.20;102134;1313;77225;-71
2021/12/02 04:28:41;;;;;;;3.90;2.90;;;;;;;6.90;86.70;96840.55;102301;1311;70607;-71
2021/12/02 04:31:07;;;;;;;11.10;5.60;;;;;;;6.90;86.58;96841.96;102327;1310;73607;-71
2021/12/02 04:33:34;;;;;;;9.00;5.90;;;;;;;6.92;86.67;96842.14;102360;1310;62500;-71
2021/12/02 04:36:01;;;;;;;8.90;5.90;;;;;;;6.94;86.58;96843.90;102345;1314;62212;-71
2021/12/02 04:38:28;;;;;;;12.70;8.20;;;;;;;6.96;86.55;96847.27;102323;1311;75771;-71
2021/12/02 04:40:56;;;;;;;12.70;8.40;;;;;;;6.97;86.54;96853.01;102281;1314;105094;-71
2021/12/02 04:43:22;;;;;;;9.90;6.50;;;;;;;6.97;86.45;96850.52;102541;1313;74414;-70
2021/12/02 04:45:49;;;;;;;11.10;8.80;;;;;;;6.97;86.49;96854.55;102304;1311;62245;-71
2021/12/02 04:48:17;;;;;;;13.90;8.30;;;;;;;6.98;86.36;96859.84;102343;1310;62114;-70
2021/12/02 04:50:45;;;;;;;13.70;7.80;;;;;;;6.98;86.26;96869.30;102375;1313;77121;-70
2021/12/02 04:53:12;;;;;;;10.20;5.50;;;;;;;7.01;86.12;96877.36;101998;1316;70764;-70
2021/12/02 04:55:39;;;;;;;8.40;4.30;;;;;;;7.03;86.07;96880.00;102097;1314;72578;-71
2021/12/02 04:58:06;;;;;;;5.80;3.20;;;;;;;7.04;85.90;96879.05;102303;1310;62101;-70
2021/12/02 05:00:33;;;;;;;3.60;2.30;;;;;;;7.04;85.86;96883.82;102341;1310;62018;-71
2021/12/02 05:03:00;;;;;;;3.40;2.40;;;;;;;7.05;85.73;96886.05;102319;1310;76369;-71
2021/12/02 05:05:27;;;;;;;3.70;2.10;;;;;;;7.09;85.59;96886.42;102369;1310;70588;-71
2021/12/02 05:07:54;;;;;;;3.50;2.10;;;;;;;7.14;85.65;96885.64;101999;1317;73565;-71
2021/12/02 05:10:21;;;;;;;2.60;1.80;;;;;;;7.17;85.44;96885.69;102329;1310;62137;-72
2021/12/02 05:12:48;;;;;;;2.80;1.70;;;;;;;7.21;85.32;96887.65;102117;1318;62233;-71
2021/12/02 05:15:16;;;;;;;2.50;1.40;;;;;;;7.23;85.00;96885.65;101998;1313;76222;-72
2021/12/02 05:17:42;;;;;;;2.40;1.40;;;;;;;7.29;85.18;96889.77;102329;1309;69342;-71
2021/12/02 05:20:10;;;;;;;3.90;1.70;;;;;;;7.30;85.05;96891.26;102254;1311;74451;-70
2021/12/02 05:22:36;;;;;;;2.40;1.40;;;;;;;7.31;84.94;96889.97;102225;1310;62223;-70
2021/12/02 05:25:04;;;;;;;3.30;1.50;;;;;;;7.31;84.81;96884.01;102124;1313;62167;-70
2021/12/02 05:27:30;;;;;;;2.20;1.70;;;;;;;7.26;84.70;96880.98;102226;1310;77554;-71
2021/12/02 05:29:57;;;;;;;2.40;1.90;;;;;;;7.23;84.46;96879.00;102317;1310;62117;-70
2021/12/02 05:32:24;;;;;;;3.30;1.80;;;;;;;7.20;84.54;96886.51;102138;1310;73760;-70
2021/12/02 05:34:50;;;;;;;2.70;1.70;;;;;;;7.15;84.43;96891.67;101776;1310;62123;-71
2021/12/02 05:37:17;;;;;;;2.40;2.00;;;;;;;7.11;84.40;96888.16;102363;1310;62183;-71
2021/12/02 05:39:44;;;;;;;3.20;1.90;;;;;;;7.04;84.49;96885.61;102375;1310;76299;-70
2021/12/02 05:42:10;;;;;;;4.20;1.90;;;;;;;6.95;84.66;96888.27;102371;1317;70621;-70
2021/12/02 05:44:37;;;;;;;2.30;1.80;;;;;;;6.88;84.71;96889.42;102329;1314;73280;-70
2021/12/02 05:47:04;;;;;;;2.70;1.60;;;;;;;6.80;84.80;96891.39;102289;1314;62142;-71
2021/12/02 05:49:30;;;;;;;2.40;1.50;;;;;;;6.74;85.01;96900.33;102353;1310;62092;-71
2021/12/02 05:51:57;;;;;;;2.50;1.60;;;;;;;6.68;85.07;96904.36;102375;1310;76641;-70
2021/12/02 05:54:24;;;;;;;2.70;1.70;;;;;;;6.63;85.16;96905.70;102330;1310;69582;-70
2021/12/02 05:56:50;;;;;;;2.70;2.10;;;;;;;6.60;85.27;96911.38;102277;1310;72546;-70
2021/12/02 05:59:17;;;;;;;2.50;1.70;;;;;;;6.59;85.40;96917.26;102117;1316;62202;-70
2021/12/02 06:01:43;;;;;;;2.40;1.90;;;;;;;6.58;85.58;96918.40;102148;1313;62124;-70
2021/12/02 06:04:10;;;;;;;2.90;1.90;;;;;;;6.58;85.65;96921.97;102193;1311;76410;-71
2021/12/02 06:06:37;;;;;;;2.70;2.10;;;;;;;6.57;85.73;96926.27;102004;1314;68739;-70
2021/12/02 06:09:05;;;;;;;2.90;2.10;;;;;;;6.57;85.76;96927.18;102353;1310;74489;-71
2021/12/02 06:11:32;;;;;;;1.90;1.50;;;;;;;6.57;85.85;96933.04;102210;1317;62115;-71
2021/12/02 06:13:58;;;;;;;3.50;2.10;;;;;;;6.55;85.87;96930.13;102051;1310;62053;-72
2021/12/02 06:16:25;;;;;;;4.20;2.40;;;;;;;6.56;85.90;96931.49;102391;1311;76733;-71
2021/12/02 06:18:52;;;;;;;3.80;2.30;;;;;;;6.56;85.87;96932.23;102364;1310;69726;-71
2021/12/02 06:21:18;;;;;;;3.70;2.50;;;;;;;6.56;85.90;96928.85;102327;1311;74450;-71
2021/12/02 06:23:45;;;;;;;16.50;10.90;;;;;;;6.53;85.96;96926.08;102411;1313;62041;-71
2021/12/02 06:26:11;;;;;;;12.40;8.50;;;;;;;6.50;85.99;96927.45;102266;1314;62299;-71
2021/12/02 06:28:38;;;;;;;12.80;8.70;;;;;;;6.46;86.02;96923.52;102312;1310;75218;-71
2021/12/02 06:31:06;;;;;;;7.30;4.10;;;;;;;6.44;86.11;96923.35;102320;1311;70711;-72
2021/12/02 06:33:34;;;;;;;4.90;4.10;;;;;;;6.43;86.15;96924.85;102327;1317;73759;-70
2021/12/02 06:36:00;;;;;;;4.10;2.90;;;;;;;6.43;86.20;96926.30;102157;1313;62124;-71
2021/12/02 06:38:27;;;;;;;4.10;3.20;;;;;;;6.44;86.17;96932.32;102347;1313;62225;-70
2021/12/02 06:40:53;;;;;;;3.80;2.30;;;;;;;6.48;86.18;96936.37;102405;1310;77053;-69
2021/12/02 06:43:20;;;;;;;3.00;2.10;;;;;;;6.52;86.16;96940.09;102165;1310;69911;-71
2021/12/02 06:45:47;;;;;;;3.00;2.20;;;;;;;6.58;86.31;96941.87;102111;1317;74210;-69
2021/12/02 06:48:13;;;;;;;3.40;2.00;;;;;;;6.63;86.49;96939.60;102115;1317;62296;-71
2021/12/02 06:50:41;;;;;;;3.00;2.20;;;;;;;6.65;86.71;96936.72;102370;1313;62444;-71
2021/12/02 06:53:08;;;;;;;3.40;1.80;;;;;;;6.66;86.71;96936.86;102354;1314;77601;-72
2021/12/02 06:55:34;;;;;;;3.00;2.30;;;;;;;6.64;86.78;96935.77;102011;1318;69256;-72
2021/12/02 06:58:01;;;;;;;4.00;1.90;;;;;;;6.63;86.92;96940.48;102397;1311;73512;-71
2021/12/02 07:00:28;;;;;;;3.40;2.00;;;;;;;6.62;87.07;96942.98;102523;1311;62022;-72
2021/12/02 07:02:55;;;;;;;4.70;2.40;;;;;;;6.62;87.04;96942.99;102350;1316;62136;-72
2021/12/02 07:05:22;;;;;;;4.90;2.80;;;;;;;6.62;87.13;96948.45;102056;1314;77405;-71
2021/12/02 07:07:49;;;;;;;5.10;2.80;;;;;;;6.62;87.19;96954.70;102364;1316;69658;-71
2021/12/02 07:10:20;;;;;;;5.20;3.60;;;;;;;6.63;87.17;96959.67;102135;1319;72910;-72
2021/12/02 07:12:52;;;;;;;4.90;3.00;;;;;;;6.67;87.18;96960.02;102471;1310;62155;-72
2021/12/02 07:15:35;;;;;;;6.00;4.00;;;;;;;6.74;87.11;96958.08;101988;1310;62222;-72
2021/12/02 07:18:10;;;;;;;5.00;3.50;;;;;;;6.79;87.01;96959.00;101946;1310;77376;-72
2021/12/02 07:20:37;;;;;;;4.20;3.10;;;;;;;6.87;86.86;96964.02;102344;1310;70712;-72
2021/12/02 07:23:04;;;;;;;3.40;2.60;;;;;;;6.95;86.66;96964.72;102360;1313;74711;-71
2021/12/02 07:25:31;;;;;;;4.40;2.60;;;;;;;7.03;86.51;96960.74;102327;1311;62276;-73
2021/12/02 07:27:58;;;;;;;5.30;3.10;;;;;;;7.11;86.48;96960.40;102344;1313;62022;-70
2021/12/02 07:30:25;;;;;;;4.40;3.40;;;;;;;7.17;86.35;96962.15;102340;1310;77184;-70
2021/12/02 07:32:56;;;;;;;5.40;3.60;;;;;;;7.25;86.03;96958.84;102352;1314;70262;-70
2021/12/02 07:35:24;;;;;;;4.70;2.90;;;;;;;7.34;85.88;96958.98;102372;1310;73393;-70
2021/12/02 07:38:02;;;;;;;4.30;3.10;;;;;;;7.42;85.82;96956.64;102320;1316;62251;-70
2021/12/02 07:40:37;;;;;;;5.40;3.10;;;;;;;7.51;85.65;96961.34;102325;1313;62118;-72
2021/12/02 07:43:04;;;;;;;3.60;2.70;;;;;;;7.59;85.38;96965.27;102379;1310;75515;-71
2021/12/02 07:45:35;;;;;;;3.50;2.50;;;;;;;7.67;85.10;96970.02;102359;1310;70245;-72
2021/12/02 07:48:06;;;;;;;3.70;2.60;;;;;;;7.73;84.80;96979.41;102395;1310;73124;-71
2021/12/02 07:50:36;;;;;;;3.10;2.00;;;;;;;7.70;85.24;96982.30;102368;1310;62117;-72
2021/12/02 07:53:04;;;;;;;;;;;;;;;7.61;85.48;96980.05;102233;1314;62225;-70
2021/12/02 07:55:36;;;;;;;2.20;1.40;;;;;;;7.51;85.75;96980.98;102396;1310;76297;-72
2021/12/02 07:58:06;;;;;;;1.60;1.40;;;;;;;7.45;85.96;96982.02;102172;1314;70265;-71
2021/12/02 08:00:33;;;;;;;2.00;1.20;;;;;;;7.40;86.16;96981.24;102366;1314;73250;-73
2021/12/02 08:03:00;;;;;;;1.70;1.60;;;;;;;7.35;86.41;96983.92;102370;1317;62131;-71
2021/12/02 08:05:27;;;;;;;2.50;1.70;;;;;;;7.33;86.58;96986.08;102452;1317;62156;-72
2021/12/02 08:07:54;;;;;;;2.60;1.60;;;;;;;7.32;86.68;96993.90;102508;1310;76531;-72
2021/12/02 08:10:22;;;;;;;2.60;1.90;;;;;;;7.32;86.69;96990.91;102509;1310;70006;-71
2021/12/02 08:12:50;;;;;;;2.60;1.60;;;;;;;7.33;86.74;96999.15;102343;1311;73519;-71
2021/12/02 08:15:21;;;;;;;3.10;1.90;;;;;;;7.33;86.67;96995.55;102437;1313;62140;-71
2021/12/02 08:17:48;;;;;;;3.80;2.50;;;;;;;7.33;86.64;96998.42;102117;1316;62038;-73
2021/12/02 08:20:16;;;;;;;3.10;2.40;;;;;;;7.34;86.68;96997.86;102380;1317;77503;-72
2021/12/02 08:22:43;;;;;;;3.00;2.60;;;;;;;7.34;86.58;97000.65;102376;1313;70327;-72
2021/12/02 08:25:11;;;;;;;4.30;3.00;;;;;;;7.36;86.39;96998.55;102356;1310;73490;-71
2021/12/02 08:27:40;;;;;;;3.20;2.30;;;;;;;7.40;86.47;97000.98;102286;1316;62109;-71
2021/12/02 08:30:10;;;;;;;4.10;2.80;;;;;;;7.44;86.23;97007.85;102454;1310;62206;-70
2021/12/02 08:32:39;;;;;;;4.80;2.80;;;;;;;7.49;86.26;97008.02;102056;1317;77365;-71
2021/12/02 08:35:06;;;;;;;4.80;2.70;;;;;;;7.53;86.28;97011.77;102333;1314;69235;-72
2021/12/02 08:37:36;;;;;;;3.80;2.70;;;;;;;7.56;85.96;97011.28;102308;1316;74236;-72
2021/12/02 08:40:04;;;;;;;3.80;2.10;;;;;;;7.61;85.89;97015.09;102318;1313;62435;-71
2021/12/02 08:42:34;;;;;;;3.20;2.40;;;;;;;7.66;85.70;97019.91;101935;1318;62190;-71
2021/12/02 08:45:01;;;;;;;3.80;2.40;;;;;;;7.72;85.20;97023.13;102124;1313;77196;-70
2021/12/02 08:47:28;;;;;;;3.70;2.20;;;;;;;7.78;85.30;97024.77;102329;1311;70568;-70
2021/12/02 08:49:57;;;;;;;2.90;2.50;;;;;;;7.82;85.38;97024.25;102303;1315;73195;-77
2021/12/02 08:52:26;;;;;;;4.40;3.40;;;;;;;7.86;85.18;97019.99;102887;1314;62221;-76
2021/12/02 08:54:54;;;;;;;3.50;2.50;;;;;;;7.89;84.66;97020.01;102602;1314;62120;-79
2021/12/02 08:57:22;;;;;;;4.30;2.90;;;;;;;7.94;84.75;97025.83;102402;1313;77288;-74
2021/12/02 08:59:50;;;;;;;3.90;2.60;;;;;;;7.98;84.64;97028.13;102388;1314;69989;-74
2021/12/02 09:02:17;;;;;;;3.10;2.40;;;;;;;8.00;84.27;97035.39;102370;1311;74476;-73
2021/12/02 09:04:44;;;;;;;4.50;3.00;;;;;;;8.02;84.07;97035.59;102459;1316;62145;-74
2021/12/02 09:07:11;;;;;;;5.20;2.70;;;;;;;8.03;83.91;97037.61;102389;1311;62132;-74
2021/12/02 09:09:38;;;;;;;5.30;3.30;;;;;;;8.07;84.10;97041.86;102381;1317;76277;-74
2021/12/02 09:12:05;;;;;;;4.00;3.00;;;;;;;8.09;83.72;97040.92;102381;1317;70511;-74
2021/12/02 09:14:31;;;;;;;4.40;2.80;;;;;;;8.13;83.69;97042.52;102387;1310;74528;-73
2021/12/02 09:16:58;;;;;;;3.00;2.20;;;;;;;8.18;83.52;97047.02;102374;1310;62180;-74
2021/12/02 09:19:25;;;;;;;2.60;1.90;;;;;;;8.23;83.34;97054.90;102433;1316;62115;-73
2021/12/02 09:21:51;;;;;;;3.70;1.80;;;;;;;8.28;82.95;97054.11;102059;1313;76377;-74
2021/12/02 09:24:18;;;;;;;2.90;2.00;;;;;;;8.31;83.10;97055.23;102543;1314;69648;-75
2021/12/02 09:26:48;;;;;;;3.80;1.80;;;;;;;8.35;82.90;97057.76;102313;1319;72709;-75
2021/12/02 09:29:16;;;;;;;3.60;2.40;;;;;;;8.39;82.97;97060.81;102593;1317;62189;-73
2021/12/02 09:31:44;;;;;;;3.10;1.80;;;;;;;8.45;82.20;97065.77;102267;1318;62223;-74
2021/12/02 09:34:11;;;;;;;2.10;1.70;;;;;;;8.48;81.54;97067.76;102663;1317;76233;-76
2021/12/02 09:36:38;;;;;;;1.60;1.30;;;;;;;8.51;81.02;97069.86;102579;1317;69394;-74
2021/12/02 09:39:07;;;;;;;2.40;1.70;;;;;;;8.53;80.77;97067.86;102899;1314;74245;-73
2021/12/02 09:41:35;;;;;;;2.50;1.50;;;;;;;8.56;80.77;97065.26;103131;1316;62129;-74
2021/12/02 09:44:03;;;;;;;1.90;1.70;;;;;;;8.59;80.31;97067.55;103171;1316;62108;-74
2021/12/02 09:46:30;;;;;;;1.90;1.70;;;;;;;8.60;80.01;97063.69;104363;1313;77245;-74
2021/12/02 09:49:02;;;;;;;1.30;1.20;;;;;;;8.63;80.22;97061.88;105142;1314;69443;-75
2021/12/02 09:52:16;;;;;;;2.90;1.70;;;;;;;8.66;79.90;97052.72;104094;1317;74048;-73
2021/12/02 09:54:42;;;;;;;2.90;1.40;;;;;;;8.67;79.72;97052.77;104490;1317;62126;-74
2021/12/02 09:57:14;;;;;;;1.50;1.30;;;;;;;8.71;79.71;97063.61;102093;1314;62423;-75
2021/12/02 10:02:10;;;;;;;3.40;1.70;;;;;;;8.73;79.01;97063.53;102418;1318;68627;-74
2021/12/02 10:04:52;;;;;;;1.50;1.30;;;;;;;8.71;79.04;97061.63;102453;1316;74495;-74
2021/12/02 10:10:29;;;;;;;1.70;1.60;;;;;;;8.63;79.10;97064.67;102466;1316;62052;-74
2021/12/02 10:13:27;;;;;;;1.90;1.60;;;;;;;8.61;78.60;97063.78;102310;1317;77447;-74
2021/12/02 10:16:09;;;;;;;2.40;1.60;;;;;;;8.55;78.60;97065.42;102303;1317;69579;-74
2021/12/02 10:19:07;;;;;;;1.90;1.60;;;;;;;8.50;78.61;97061.36;102323;1317;73365;-74
2021/12/02 10:21:38;;;;;;;2.60;2.00;;;;;;;8.47;78.82;97064.56;102348;1316;62174;-74
2021/12/02 10:24:18;;;;;;;2.50;1.60;;;;;;;8.45;78.95;97064.34;102334;1317;62509;-74
2021/12/02 10:26:49;;;;;;;2.30;1.50;;;;;;;8.44;79.01;97070.82;102497;1317;77366;-74
2021/12/02 10:29:17;;;;;;;4.00;2.40;;;;;;;8.44;79.06;97075.35;102372;1317;69851;-75
2021/12/02 10:31:47;;;;;;;1.70;1.40;;;;;;;8.43;78.92;97082.91;102335;1311;73665;-73
2021/12/02 10:34:17;;;;;;;2.70;1.90;;;;;;;8.42;79.11;97088.83;102427;1310;62051;-74
2021/12/02 10:36:47;;;;;;;4.10;2.00;;;;;;;8.41;79.05;97087.19;102414;1317;62140;-73
2021/12/02 10:39:21;;;;;;;2.90;1.90;;;;;;;8.41;79.41;97084.50;102340;1310;77334;-74
2021/12/02 10:42:05;;;;;;;3.30;1.90;;;;;;;8.42;79.39;97082.33;102380;1310;69435;-74
2021/12/02 10:44:35;;;;;;;4.00;2.00;;;;;;;8.40;79.32;97081.61;102461;1313;73764;-74
2021/12/02 10:47:06;;;;;;;3.30;2.00;;;;;;;8.40;79.17;97080.21;102448;1310;62250;-74
2021/12/02 10:49:39;;;;;;;3.40;3.00;;;;;;;8.36;79.24;97078.67;102328;1316;62088;-74
2021/12/02 10:52:10;;;;;;;3.10;2.10;;;;;;;8.36;79.37;97075.35;102357;1316;75953;-76
2021/12/02 10:54:41;;;;;;;3.40;2.80;;;;;;;8.34;79.32;97073.89;102525;1317;70163;-74
2021/12/02 10:57:24;;;;;;;4.40;2.50;;;;;;;8.33;79.30;97079.86;102343;1317;73811;-74
2021/12/02 10:59:55;;;;;;;5.60;3.20;;;;;;;8.31;79.19;97076.71;102454;1314;62122;-74
2021/12/02 11:02:32;;;;;;;7.40;4.00;;;;;;;8.31;79.23;97079.16;102351;1316;62238;-74
2021/12/02 11:05:05;;;;;;;5.90;3.60;;;;;;;8.30;79.44;97075.70;102379;1317;76344;-75
2021/12/02 11:07:39;;;;;;;4.80;3.20;;;;;;;8.30;79.29;97076.10;102323;1317;70236;-74
2021/12/02 11:10:14;;;;;;;6.80;2.70;;;;;;;8.29;79.25;97075.82;102327;1311;74932;-74
2021/12/02 11:12:44;;;;;;;3.80;2.20;;;;;;;8.27;79.20;97074.05;102394;1316;62132;-75
2021/12/02 11:15:18;;;;;;;3.80;2.90;;;;;;;8.26;79.33;97079.41;102380;1317;62341;-74
2021/12/02 11:17:53;;;;;;;3.20;2.40;;;;;;;8.27;79.20;97075.85;102322;1314;76369;-73
2021/12/02 11:20:32;;;;;;;4.90;2.90;;;;;;;8.27;79.35;97064.16;101907;1314;69414;-75
2021/12/02 11:23:07;;;;;;;4.80;3.00;;;;;;;8.28;79.44;97061.56;102341;1314;74902;-74
2021/12/02 11:25:38;;;;;;;4.50;3.00;;;;;;;8.30;79.41;97065.84;102298;1316;62129;-74
2021/12/02 11:28:08;;;;;;;3.80;2.60;;;;;;;8.28;79.08;97065.24;102260;1316;62212;-74
2021/12/02 11:30:38;;;;;;;3.80;2.60;;;;;;;8.28;79.27;97070.78;102288;1316;77189;-74
2021/12/02 11:33:06;;;;;;;4.80;3.40;;;;;;;8.27;79.02;97070.11;101940;1316;69900;-75
2021/12/02 11:35:39;;;;;;;4.20;2.80;;;;;;;8.25;78.75;97069.63;102489;1317;74264;-74
2021/12/02 11:38:15;;;;;;;5.30;3.10;;;;;;;8.23;78.72;97074.02;102345;1317;62132;-74
2021/12/02 11:40:46;;;;;;;3.40;2.20;;;;;;;8.21;78.46;97071.35;102302;1316;62118;-76
2021/12/02 11:43:16;;;;;;;3.40;2.50;;;;;;;8.21;78.44;97071.51;102408;1310;77373;-74
2021/12/02 11:45:48;;;;;;;4.90;2.80;;;;;;;8.23;78.65;97070.13;102380;1316;70156;-75
2021/12/02 11:48:24;;;;;;;3.40;2.40;;;;;;;8.26;78.66;97070.27;102322;1311;74586;-75
2021/12/02 11:50:54;;;;;;;3.10;2.30;;;;;;;8.28;78.67;97074.86;102310;1317;62281;-74
2021/12/02 11:53:22;;;;;;;6.00;2.70;;;;;;;8.31;78.73;97077.04;102294;1317;62196;-73
2021/12/02 11:56:02;;;;;;;3.90;2.80;;;;;;;8.32;78.33;97071.98;102419;1317;77802;-76
2021/12/02 11:58:29;;;;;;;4.60;2.20;;;;;;;8.31;78.11;97069.98;101869;1317;70562;-74
2021/12/02 12:00:57;;;;;;;4.10;2.60;;;;;;;8.30;78.23;97065.32;101993;1314;72567;-74
2021/12/02 12:03:40;;;;;;;3.10;2.40;;;;;;;8.31;78.25;97068.18;102380;1316;62127;-75
2021/12/02 12:06:13;;;;;;;4.70;3.00;;;;;;;8.33;78.34;97069.92;102306;1316;62171;-75
2021/12/02 12:08:50;;;;;;;4.40;2.80;;;;;;;8.34;77.94;97077.66;102491;1316;77278;-76
2021/12/02 12:11:27;;;;;;;2.20;1.90;;;;;;;8.31;77.56;97078.83;102358;1310;70505;-75
2021/12/02 12:14:07;;;;;;;3.30;1.90;;;;;;;8.27;77.41;97080.45;102313;1317;74813;-74
2021/12/02 12:16:42;;;;;;;2.60;1.70;;;;;;;8.24;77.65;97084.71;102329;1310;62217;-74